Time;durP1;ratioP1;P1;durP2;ratioP2;P2;SDS_P1;SDS_P2;PMS_P1;PMS_P2;Temp;Humidity;BMP_temperature;BMP_pressure;BME280_temperature;BME280_humidity;BME280_pressure;Samples;Min_cycle;Max_cycle;Signal;HPM_P1;HPM_P2
2021/10/17 00:00:12;;;;;;;4.30;3.90;;;;;16.60;98630.00;;;;7393439;19;20143;-59
2021/10/17 00:02:39;;;;;;;4.63;4.00;;;;;16.60;98626.00;;;;7392823;19;20142;-59
2021/10/17 00:05:10;;;;;;;4.07;3.67;;;;;16.60;98627.00;;;;7393739;19;20135;-59
2021/10/17 00:07:40;;;;;;;4.00;3.70;;;;;16.60;98624.00;;;;7394801;19;20125;-59
2021/10/17 00:10:10;;;;;;;4.07;3.70;;;;;16.60;98622.00;;;;7394394;19;20138;-60
2021/10/17 00:12:39;;;;;;;4.53;4.13;;;;;16.60;98624.00;;;;7393216;19;20130;-59
2021/10/17 00:15:11;;;;;;;4.27;3.87;;;;;16.60;98627.00;;;;7394571;19;20118;-59
2021/10/17 00:17:39;;;;;;;4.27;3.87;;;;;16.60;98625.00;;;;7394555;19;20229;-59
2021/10/17 00:20:07;;;;;;;4.33;3.93;;;;;16.50;98623.00;;;;7394455;19;20242;-59
2021/10/17 00:22:33;;;;;;;4.10;3.70;;;;;16.50;98626.00;;;;7392988;19;20143;-59
2021/10/17 00:25:00;;;;;;;4.33;3.93;;;;;16.60;98629.00;;;;7394746;19;20113;-60
2021/10/17 00:27:27;;;;;;;3.90;3.60;;;;;16.50;98622.00;;;;7394226;19;20139;-59
2021/10/17 00:29:53;;;;;;;4.13;3.73;;;;;16.50;98616.00;;;;7393327;19;20125;-59
2021/10/17 00:32:20;;;;;;;4.23;3.83;;;;;16.50;98614.00;;;;7392449;19;20137;-59
2021/10/17 00:34:47;;;;;;;4.23;3.80;;;;;16.50;98616.00;;;;7392841;19;20130;-59
2021/10/17 00:37:16;;;;;;;4.37;3.90;;;;;16.50;98618.00;;;;7392831;19;20113;-59
2021/10/17 00:39:42;;;;;;;3.80;3.50;;;;;16.50;98610.00;;;;7394295;19;20117;-60
2021/10/17 00:42:10;;;;;;;3.60;3.30;;;;;16.50;98611.00;;;;7391609;19;20158;-59
2021/10/17 00:44:38;;;;;;;4.67;4.00;;;;;16.50;98619.00;;;;7392559;19;20190;-59
2021/10/17 00:47:05;;;;;;;3.83;3.53;;;;;16.40;98612.00;;;;7393637;19;20578;-59
2021/10/17 00:49:31;;;;;;;3.67;3.37;;;;;16.50;98612.00;;;;7392734;19;20127;-59
2021/10/17 00:51:58;;;;;;;3.70;3.40;;;;;16.40;98613.00;;;;7390498;19;20150;-60
2021/10/17 00:54:25;;;;;;;3.50;3.20;;;;;16.40;98603.00;;;;7391849;19;20129;-59
2021/10/17 00:56:51;;;;;;;3.70;3.40;;;;;16.40;98605.00;;;;7392233;19;20124;-59
2021/10/17 00:59:18;;;;;;;3.77;3.47;;;;;16.40;98618.00;;;;7393744;19;20141;-59
2021/10/17 01:01:45;;;;;;;3.97;3.60;;;;;16.40;98608.00;;;;7391629;19;20172;-59
2021/10/17 01:04:11;;;;;;;3.67;3.37;;;;;16.40;98608.00;;;;7393615;19;20128;-60
2021/10/17 01:06:38;;;;;;;3.70;3.40;;;;;16.40;98610.00;;;;7393154;19;20610;-59
2021/10/17 01:09:05;;;;;;;3.50;3.20;;;;;16.40;98611.00;;;;7394682;19;20117;-59
2021/10/17 01:11:43;;;;;;;3.93;3.27;;;;;16.40;98601.00;;;;7397681;19;20220;-59
2021/10/17 01:14:21;;;;;;;4.07;3.67;;;;;16.40;98603.00;;;;7400554;19;20203;-59
2021/10/17 01:16:49;;;;;;;3.97;3.60;;;;;16.40;98604.00;;;;7398891;19;20648;-59
2021/10/17 01:19:17;;;;;;;3.37;3.07;;;;;16.40;98601.00;;;;7398822;19;20136;-59
2021/10/17 01:21:46;;;;;;;3.83;3.53;;;;;16.40;98595.00;;;;7397747;19;20506;-59
2021/10/17 01:24:13;;;;;;;3.60;3.30;;;;;16.40;98598.00;;;;7398987;19;20148;-59
2021/10/17 01:26:40;;;;;;;3.40;3.10;;;;;16.40;98596.00;;;;7398436;19;20133;-59
2021/10/17 01:29:08;;;;;;;3.57;3.27;;;;;16.40;98596.00;;;;7398691;19;20165;-58
2021/10/17 01:31:36;;;;;;;3.53;3.23;;;;;16.40;98590.00;;;;7397332;19;20166;-58
2021/10/17 01:34:04;;;;;;;3.37;3.10;;;;;16.30;98588.00;;;;7400200;19;20107;-59
2021/10/17 01:36:32;;;;;;;3.40;3.10;;;;;16.30;98586.00;;;;7398375;19;20222;-59
2021/10/17 01:39:00;;;;;;;3.40;3.10;;;;;16.30;98587.00;;;;7398483;19;20122;-59
2021/10/17 01:41:27;;;;;;;3.40;3.10;;;;;16.30;98592.00;;;;7397466;19;20189;-59
2021/10/17 01:44:07;;;;;;;3.70;3.40;;;;;16.30;98590.00;;;;7397747;19;20143;-59
2021/10/17 01:46:35;;;;;;;3.60;3.30;;;;;16.30;98588.00;;;;7398550;19;20133;-59
2021/10/17 01:49:05;;;;;;;3.40;3.10;;;;;16.30;98583.00;;;;7399363;19;20194;-59
2021/10/17 01:51:34;;;;;;;3.43;3.13;;;;;16.30;98579.00;;;;7396333;19;20233;-59
2021/10/17 01:54:05;;;;;;;3.50;3.20;;;;;16.30;98575.00;;;;7397623;19;20255;-59
2021/10/17 01:56:33;;;;;;;3.40;3.10;;;;;16.30;98574.00;;;;7397890;19;20142;-59
2021/10/17 01:59:01;;;;;;;3.10;2.90;;;;;16.30;98577.00;;;;7397826;19;20128;-59
2021/10/17 02:01:28;;;;;;;3.47;3.17;;;;;16.30;98575.00;;;;7396598;19;20532;-59
2021/10/17 02:03:59;;;;;;;3.20;3.00;;;;;16.30;98578.00;;;;7397534;19;20157;-59
2021/10/17 02:06:27;;;;;;;3.37;3.10;;;;;16.30;98573.00;;;;7397212;19;20597;-59
2021/10/17 02:08:58;;;;;;;3.27;3.00;;;;;16.30;98580.00;;;;7397115;19;20590;-59
2021/10/17 02:11:25;;;;;;;3.00;2.73;;;;;16.30;98580.00;;;;7396651;19;20176;-59
2021/10/17 02:13:52;;;;;;;3.50;3.20;;;;;16.30;98572.00;;;;7396992;19;20127;-59
2021/10/17 02:16:18;;;;;;;3.60;3.30;;;;;16.30;98566.00;;;;7396747;19;20186;-59
2021/10/17 02:18:45;;;;;;;3.33;3.10;;;;;16.30;98577.00;;;;7397264;19;20162;-59
2021/10/17 02:21:13;;;;;;;2.93;2.73;;;;;16.30;98576.00;;;;7395510;19;20622;-59
2021/10/17 02:23:41;;;;;;;3.57;3.27;;;;;16.30;98571.00;;;;7396735;19;20133;-59
2021/10/17 02:26:08;;;;;;;3.10;2.80;;;;;16.30;98572.00;;;;7396238;19;20137;-60
2021/10/17 02:29:04;;;;;;;3.20;2.90;;;;;16.30;98565.00;;;;7397142;19;20197;-59
2021/10/17 02:31:40;;;;;;;3.33;3.03;;;;;16.30;98555.00;;;;7395332;19;20190;-59
2021/10/17 02:34:07;;;;;;;3.30;3.00;;;;;16.30;98556.00;;;;7396802;19;20501;-59
2021/10/17 02:36:34;;;;;;;3.27;3.07;;;;;16.30;98559.00;;;;7397769;19;20110;-59
2021/10/17 02:39:02;;;;;;;3.30;3.00;;;;;16.30;98566.00;;;;7396452;19;20128;-59
2021/10/17 02:41:29;;;;;;;3.00;2.80;;;;;16.30;98561.00;;;;7395686;19;20530;-60
2021/10/17 02:43:55;;;;;;;3.30;3.10;;;;;16.30;98564.00;;;;7396383;19;20129;-59
2021/10/17 02:46:22;;;;;;;3.07;2.87;;;;;16.30;98560.00;;;;7397490;19;20583;-59
2021/10/17 02:48:50;;;;;;;3.20;3.00;;;;;16.20;98552.00;;;;7395786;19;20490;-58
2021/10/17 02:51:17;;;;;;;2.90;2.70;;;;;16.20;98550.00;;;;7395556;19;20167;-60
2021/10/17 02:53:44;;;;;;;3.20;2.90;;;;;16.20;98558.00;;;;7395708;19;20468;-59
2021/10/17 02:56:12;;;;;;;3.20;2.90;;;;;16.20;98556.00;;;;7395866;19;20150;-60
2021/10/17 02:58:39;;;;;;;3.43;3.13;;;;;16.20;98554.00;;;;7397062;19;20118;-59
2021/10/17 03:01:06;;;;;;;3.10;2.80;;;;;16.20;98553.00;;;;7395382;19;20138;-60
2021/10/17 03:03:33;;;;;;;2.90;2.70;;;;;16.20;98552.00;;;;7395339;19;20129;-59
2021/10/17 03:06:00;;;;;;;3.10;2.90;;;;;16.20;98550.00;;;;7395559;19;20192;-59
2021/10/17 03:08:28;;;;;;;3.60;3.30;;;;;16.20;98547.00;;;;7395206;19;20127;-59
2021/10/17 03:10:58;;;;;;;3.20;2.90;;;;;16.20;98543.00;;;;7394570;19;20130;-60
2021/10/17 03:13:25;;;;;;;3.20;2.90;;;;;16.20;98543.00;;;;7395411;19;20137;-59
2021/10/17 03:15:56;;;;;;;3.07;2.87;;;;;16.20;98536.00;;;;7395225;19;20132;-59
2021/10/17 03:18:24;;;;;;;3.30;3.00;;;;;16.20;98541.00;;;;7395253;19;20130;-59
2021/10/17 03:20:51;;;;;;;3.13;2.90;;;;;16.20;98548.00;;;;7394593;19;20131;-60
2021/10/17 03:23:18;;;;;;;3.20;2.90;;;;;16.20;98542.00;;;;7394777;19;20181;-59
2021/10/17 03:25:47;;;;;;;3.20;2.90;;;;;16.20;98530.00;;;;7394618;19;20204;-59
2021/10/17 03:28:14;;;;;;;3.07;2.87;;;;;16.20;98534.00;;;;7394884;19;20547;-59
2021/10/17 03:30:41;;;;;;;2.83;2.63;;;;;16.20;98536.00;;;;7396057;19;20109;-59
2021/10/17 03:33:11;;;;;;;2.93;2.73;;;;;16.20;98529.00;;;;7390261;19;20187;-59
2021/10/17 03:35:37;;;;;;;2.80;2.60;;;;;16.20;98535.00;;;;7394835;19;20124;-59
2021/10/17 03:38:04;;;;;;;3.20;3.00;;;;;16.20;98534.00;;;;7394686;19;20133;-59
2021/10/17 03:40:31;;;;;;;3.23;3.03;;;;;16.20;98538.00;;;;7394031;19;20659;-59
2021/10/17 03:42:57;;;;;;;3.20;2.97;;;;;16.10;98530.00;;;;7394250;19;20133;-59
2021/10/17 03:45:31;;;;;;;2.77;2.57;;;;;16.10;98541.00;;;;7394165;19;20485;-59
2021/10/17 03:47:57;;;;;;;2.80;2.60;;;;;16.10;98531.00;;;;7394463;19;20133;-59
2021/10/17 03:50:24;;;;;;;2.50;2.30;;;;;16.10;98523.00;;;;7395440;19;20115;-59
2021/10/17 03:52:51;;;;;;;2.97;2.77;;;;;16.10;98536.00;;;;7392621;19;20502;-59
2021/10/17 03:55:18;;;;;;;2.70;2.50;;;;;16.10;98528.00;;;;7395176;19;20129;-59
2021/10/17 03:57:47;;;;;;;2.67;2.47;;;;;16.10;98526.00;;;;7394011;19;20133;-59
2021/10/17 04:00:14;;;;;;;3.07;2.87;;;;;16.10;98526.00;;;;7393977;19;20126;-59
2021/10/17 04:02:41;;;;;;;2.80;2.60;;;;;16.10;98529.00;;;;7392074;19;20601;-59
2021/10/17 04:05:11;;;;;;;3.20;2.90;;;;;16.10;98528.00;;;;7393382;19;20152;-59
2021/10/17 04:07:38;;;;;;;2.90;2.70;;;;;16.10;98520.00;;;;7393362;19;20155;-59
2021/10/17 04:10:07;;;;;;;3.20;3.00;;;;;16.10;98522.00;;;;7393165;19;20140;-59
2021/10/17 04:12:35;;;;;;;3.03;2.83;;;;;16.10;98523.00;;;;7391785;19;20162;-59
2021/10/17 04:15:05;;;;;;;2.73;2.53;;;;;16.10;98522.00;;;;7393535;19;20189;-59
2021/10/17 04:17:37;;;;;;;3.20;3.00;;;;;16.10;98522.00;;;;7393235;19;20160;-60
2021/10/17 04:20:04;;;;;;;3.30;3.00;;;;;16.10;98522.00;;;;7393886;19;20125;-59
2021/10/17 04:22:31;;;;;;;2.80;2.60;;;;;16.10;98526.00;;;;7391915;19;20156;-59
2021/10/17 04:24:58;;;;;;;2.70;2.50;;;;;16.10;98530.00;;;;7392876;19;20471;-59
2021/10/17 04:27:25;;;;;;;2.77;2.57;;;;;16.10;98526.00;;;;7392803;19;20130;-58
2021/10/17 04:29:54;;;;;;;3.00;2.80;;;;;16.10;98522.00;;;;7392697;19;20132;-59
2021/10/17 04:32:20;;;;;;;2.23;2.13;;;;;16.10;98528.00;;;;7391915;19;20166;-59
2021/10/17 04:34:47;;;;;;;3.07;2.80;;;;;16.10;98539.00;;;;7392900;19;20129;-60
2021/10/17 04:37:13;;;;;;;2.47;2.37;;;;;16.10;98538.00;;;;7393054;19;20471;-59
2021/10/17 04:39:40;;;;;;;3.33;2.53;;;;;16.10;98529.00;;;;7394043;19;20112;-59
2021/10/17 04:42:07;;;;;;;2.67;2.47;;;;;16.00;98538.00;;;;7391655;19;20459;-59
2021/10/17 04:44:34;;;;;;;2.73;2.53;;;;;16.00;98539.00;;;;7399766;19;20116;-59
2021/10/17 04:47:01;;;;;;;2.80;2.50;;;;;16.00;98534.00;;;;7401551;19;20122;-59
2021/10/17 04:49:28;;;;;;;2.73;2.53;;;;;16.00;98543.00;;;;7400593;19;20140;-59
2021/10/17 04:51:54;;;;;;;2.80;2.60;;;;;16.00;98536.00;;;;7399964;19;20127;-59
2021/10/17 04:54:21;;;;;;;2.77;2.57;;;;;16.00;98528.00;;;;7400286;19;20106;-59
2021/10/17 04:56:49;;;;;;;3.07;2.77;;;;;16.00;98539.00;;;;7400004;19;20219;-59
2021/10/17 04:59:21;;;;;;;2.37;2.17;;;;;16.00;98542.00;;;;7399653;19;20154;-59
2021/10/17 05:01:50;;;;;;;2.67;2.47;;;;;16.00;98539.00;;;;7398253;19;20158;-58
2021/10/17 05:04:18;;;;;;;2.60;2.40;;;;;16.00;98538.00;;;;7399759;19;20136;-59
2021/10/17 05:06:46;;;;;;;2.60;2.40;;;;;16.00;98545.00;;;;7399375;19;20198;-59
2021/10/17 05:09:12;;;;;;;2.53;2.37;;;;;16.00;98544.00;;;;7399459;19;20600;-59
2021/10/17 05:11:39;;;;;;;2.70;2.50;;;;;16.00;98544.00;;;;7398537;19;20239;-59
2021/10/17 05:14:06;;;;;;;2.40;2.20;;;;;16.00;98546.00;;;;7399382;19;20138;-59
2021/10/17 05:16:32;;;;;;;2.57;2.37;;;;;16.00;98540.00;;;;7399827;19;20462;-59
2021/10/17 05:18:59;;;;;;;2.30;2.20;;;;;16.00;98547.00;;;;7399266;19;20141;-60
2021/10/17 05:21:28;;;;;;;2.40;2.30;;;;;16.00;98539.00;;;;7398155;19;20169;-59
2021/10/17 05:23:56;;;;;;;2.60;2.40;;;;;16.00;98546.00;;;;7399220;19;20489;-59
2021/10/17 05:26:23;;;;;;;2.57;2.37;;;;;16.00;98547.00;;;;7398428;19;20233;-60
2021/10/17 05:28:49;;;;;;;2.43;2.23;;;;;16.00;98550.00;;;;7398675;19;20604;-59
2021/10/17 05:31:16;;;;;;;2.70;2.50;;;;;16.00;98557.00;;;;7398257;19;20168;-59
2021/10/17 05:33:44;;;;;;;2.60;2.40;;;;;16.00;98550.00;;;;7395996;19;20536;-59
2021/10/17 05:36:12;;;;;;;2.30;2.20;;;;;16.00;98542.00;;;;7398468;19;20128;-59
2021/10/17 05:38:42;;;;;;;2.30;2.20;;;;;16.00;98550.00;;;;7398461;19;20594;-59
2021/10/17 05:41:09;;;;;;;2.50;2.30;;;;;16.00;98542.00;;;;7397714;19;20169;-59
2021/10/17 05:43:37;;;;;;;2.67;2.47;;;;;16.00;98551.00;;;;7398587;19;20158;-59
2021/10/17 05:46:04;;;;;;;2.30;2.10;;;;;16.00;98551.00;;;;7398467;19;20134;-59
2021/10/17 05:48:30;;;;;;;2.63;2.43;;;;;16.00;98554.00;;;;7398420;19;20580;-59
2021/10/17 05:50:57;;;;;;;2.13;2.03;;;;;16.00;98558.00;;;;7398393;19;20141;-60
2021/10/17 05:53:24;;;;;;;2.47;2.37;;;;;16.00;98564.00;;;;7395744;19;20191;-59
2021/10/17 05:55:51;;;;;;;2.37;2.20;;;;;16.00;98568.00;;;;7396594;19;20130;-59
2021/10/17 05:58:18;;;;;;;2.50;2.30;;;;;16.00;98571.00;;;;7397794;19;20484;-59
2021/10/17 06:00:45;;;;;;;3.97;2.60;;;;;16.00;98564.00;;;;7398008;19;20528;-59
2021/10/17 06:03:12;;;;;;;2.70;2.50;;;;;16.00;98565.00;;;;7395415;19;20223;-59
2021/10/17 06:06:02;;;;;;;2.37;2.27;;;;;16.00;98572.00;;;;7399588;19;20121;-59
2021/10/17 06:08:31;;;;;;;2.40;2.30;;;;;16.00;98575.00;;;;7398223;19;20132;-59
2021/10/17 06:10:59;;;;;;;2.63;2.43;;;;;16.00;98578.00;;;;7396880;19;20156;-60
2021/10/17 06:13:26;;;;;;;2.60;2.40;;;;;16.00;98582.00;;;;7395643;19;20133;-59
2021/10/17 06:15:54;;;;;;;2.80;2.60;;;;;16.00;98582.00;;;;7397140;19;20132;-59
2021/10/17 06:18:23;;;;;;;2.40;2.20;;;;;16.00;98590.00;;;;7397036;19;20201;-57
2021/10/17 06:20:52;;;;;;;2.40;2.27;;;;;16.00;98588.00;;;;7396831;19;20134;-60
2021/10/17 06:23:18;;;;;;;2.47;2.27;;;;;16.00;98590.00;;;;7397404;19;20474;-59
2021/10/17 06:25:47;;;;;;;2.33;2.13;;;;;16.00;98591.00;;;;7397169;19;20157;-59
2021/10/17 06:28:14;;;;;;;2.47;2.13;;;;;16.00;98596.00;;;;7396967;19;20591;-58
2021/10/17 06:30:42;;;;;;;3.00;2.40;;;;;16.00;98592.00;;;;7397069;19;20132;-59
2021/10/17 06:33:09;;;;;;;2.70;2.50;;;;;16.00;98604.00;;;;7394469;19;20160;-59
2021/10/17 06:35:36;;;;;;;2.40;2.20;;;;;16.00;98605.00;;;;7397261;19;20576;-58
2021/10/17 06:38:02;;;;;;;2.60;2.40;;;;;16.00;98593.00;;;;7396395;19;20671;-58
2021/10/17 06:40:29;;;;;;;2.33;2.23;;;;;16.00;98595.00;;;;7396274;19;20131;-59
2021/10/17 06:42:57;;;;;;;2.30;2.20;;;;;16.00;98602.00;;;;7394733;19;20167;-58
2021/10/17 06:45:42;;;;;;;2.17;2.07;;;;;16.00;98612.00;;;;7398524;19;20192;-59
2021/10/17 06:48:11;;;;;;;2.70;2.50;;;;;16.00;98611.00;;;;7396098;19;20126;-58
2021/10/17 06:50:38;;;;;;;2.33;2.13;;;;;16.00;98610.00;;;;7396454;19;20136;-58
2021/10/17 06:53:07;;;;;;;2.23;2.07;;;;;16.00;98615.00;;;;7393667;19;20590;-63
2021/10/17 06:55:34;;;;;;;2.53;2.33;;;;;16.00;98614.00;;;;7397814;19;20114;-59
2021/10/17 06:58:00;;;;;;;2.50;2.30;;;;;16.20;98612.00;;;;7396364;19;20495;-59
2021/10/17 07:00:29;;;;;;;2.30;2.10;;;;;16.20;98616.00;;;;7396095;19;20131;-59
2021/10/17 07:02:56;;;;;;;2.40;2.20;;;;;16.20;98623.00;;;;7394327;19;20276;-59
2021/10/17 07:05:24;;;;;;;2.87;2.27;;;;;16.20;98624.00;;;;7396070;19;20137;-60
2021/10/17 07:07:50;;;;;;;2.80;2.47;;;;;16.30;98621.00;;;;7394983;19;20137;-60
2021/10/17 07:10:19;;;;;;;3.87;2.90;;;;;16.30;98623.00;;;;7395875;19;20168;-60
2021/10/17 07:13:04;;;;;;;3.10;2.53;;;;;16.30;98622.00;;;;7396054;19;20176;-60
2021/10/17 07:15:50;;;;;;;2.67;2.47;;;;;16.40;98625.00;;;;7396143;19;20114;-60
2021/10/17 07:18:19;;;;;;;2.67;2.47;;;;;16.40;98619.00;;;;7395431;19;20135;-62
2021/10/17 07:20:46;;;;;;;2.90;2.70;;;;;16.40;98625.00;;;;7395448;19;20126;-62
2021/10/17 07:23:13;;;;;;;2.50;2.30;;;;;16.40;98635.00;;;;7395590;19;20145;-62
2021/10/17 07:25:40;;;;;;;2.80;2.60;;;;;16.50;98632.00;;;;7395425;19;20141;-60
2021/10/17 07:28:07;;;;;;;2.63;2.43;;;;;16.50;98635.00;;;;7395367;19;20648;-60
2021/10/17 07:30:48;;;;;;;2.63;2.43;;;;;16.50;98640.00;;;;7394867;19;20238;-60
2021/10/17 07:33:15;;;;;;;3.20;2.77;;;;;16.50;98633.00;;;;7393875;19;20121;-59
2021/10/17 07:35:42;;;;;;;2.40;2.20;;;;;16.50;98638.00;;;;7394638;19;20592;-59
2021/10/17 07:38:09;;;;;;;2.73;2.53;;;;;16.50;98634.00;;;;7395065;19;20129;-59
2021/10/17 07:40:36;;;;;;;2.47;2.20;;;;;16.50;98631.00;;;;7394536;19;20203;-60
2021/10/17 07:43:03;;;;;;;2.70;2.50;;;;;16.50;98633.00;;;;7393756;19;20166;-60
2021/10/17 07:45:31;;;;;;;2.60;2.40;;;;;16.50;98633.00;;;;7395202;19;20128;-59
2021/10/17 07:47:58;;;;;;;2.50;2.30;;;;;16.50;98631.00;;;;7394434;19;20636;-60
2021/10/17 07:50:25;;;;;;;2.40;2.30;;;;;16.50;98633.00;;;;7394462;19;20126;-60
2021/10/17 07:52:52;;;;;;;2.80;2.60;;;;;16.50;98630.00;;;;7393253;19;20209;-60
2021/10/17 07:55:26;;;;;;;2.10;2.00;;;;;16.50;98635.00;;;;7394305;19;20602;-60
2021/10/17 07:57:58;;;;;;;2.60;2.40;;;;;16.50;98633.00;;;;7394245;19;20133;-60
2021/10/17 08:00:37;;;;;;;2.20;2.10;;;;;16.50;98625.00;;;;7394468;19;20131;-60
2021/10/17 08:03:27;;;;;;;2.30;2.20;;;;;16.50;98631.00;;;;7395073;19;20157;-60
2021/10/17 08:06:26;;;;;;;2.10;2.00;;;;;16.50;98626.00;;;;7394452;19;20135;-60
2021/10/17 08:08:52;;;;;;;2.60;2.40;;;;;16.50;98635.00;;;;7393609;19;20692;-60
2021/10/17 08:11:20;;;;;;;2.60;2.40;;;;;16.50;98638.00;;;;7393595;19;20228;-60
2021/10/17 08:13:47;;;;;;;2.47;2.27;;;;;16.50;98627.00;;;;7392464;19;20130;-59
2021/10/17 08:16:16;;;;;;;2.33;2.23;;;;;16.50;98632.00;;;;7390911;19;20142;-62
2021/10/17 08:18:54;;;;;;;2.93;2.20;;;;;16.50;98626.00;;;;7380339;19;20138;-57
2021/10/17 08:21:20;;;;;;;2.30;2.10;;;;;16.50;98629.00;;;;7393075;19;20508;-58
2021/10/17 08:23:57;;;;;;;2.53;2.33;;;;;16.50;98631.00;;;;7393472;19;20126;-59
2021/10/17 08:26:24;;;;;;;2.63;2.43;;;;;16.50;98626.00;;;;7393646;19;20242;-56
2021/10/17 08:28:55;;;;;;;2.40;2.23;;;;;16.50;98622.00;;;;7392670;19;20134;-59
2021/10/17 08:31:26;;;;;;;2.60;2.40;;;;;16.50;98622.00;;;;7392836;19;20611;-57
2021/10/17 08:33:54;;;;;;;2.40;2.20;;;;;16.50;98616.00;;;;7390490;19;20521;-59
2021/10/17 08:36:29;;;;;;;2.50;2.30;;;;;16.50;98620.00;;;;7389784;19;20162;-59
2021/10/17 08:39:36;;;;;;;2.33;2.17;;;;;16.50;98619.00;;;;7391844;19;20488;-62
2021/10/17 08:42:03;;;;;;;2.53;2.33;;;;;16.50;98620.00;;;;7391653;19;20194;-62
2021/10/17 08:44:30;;;;;;;2.43;2.23;;;;;16.50;98621.00;;;;7393136;19;20594;-66
2021/10/17 08:47:17;;;;;;;2.33;2.17;;;;;16.50;98625.00;;;;7394253;19;20141;-60
2021/10/17 08:49:45;;;;;;;2.30;2.10;;;;;16.50;98626.00;;;;7393557;19;20129;-61
2021/10/17 08:52:12;;;;;;;2.40;2.30;;;;;16.50;98630.00;;;;7392365;19;20228;-61
2021/10/17 08:54:46;;;;;;;2.27;2.17;;;;;16.50;98621.00;;;;7392771;19;20171;-61
2021/10/17 08:57:13;;;;;;;2.10;2.00;;;;;16.50;98629.00;;;;7393123;19;20125;-61
2021/10/17 08:59:51;;;;;;;2.87;2.67;;;;;16.50;98637.00;;;;7393033;19;20204;-61
2021/10/17 09:02:22;;;;;;;3.00;2.40;;;;;16.50;98631.00;;;;7392409;19;20189;-61
2021/10/17 09:05:06;;;;;;;2.57;2.37;;;;;16.50;98633.00;;;;7392560;19;20137;-62
2021/10/17 09:07:53;;;;;;;2.77;2.57;;;;;16.50;98631.00;;;;7392550;19;20122;-61
2021/10/17 09:10:36;;;;;;;3.10;2.27;;;;;16.50;98635.00;;;;7392725;19;20124;-61
2021/10/17 09:13:11;;;;;;;2.53;2.33;;;;;16.50;98623.00;;;;7391729;19;20129;-61
2021/10/17 09:15:39;;;;;;;2.43;2.23;;;;;16.50;98633.00;;;;7392898;19;20142;-61
2021/10/17 09:18:12;;;;;;;2.60;2.40;;;;;16.50;98628.00;;;;7393707;19;20121;-61
2021/10/17 09:20:47;;;;;;;2.70;2.50;;;;;16.50;98631.00;;;;7393694;19;20461;-62
2021/10/17 09:23:31;;;;;;;2.47;2.27;;;;;16.50;98633.00;;;;7394041;19;20124;-61
2021/10/17 09:26:05;;;;;;;2.73;2.23;;;;;16.50;98621.00;;;;7393856;19;20125;-61
2021/10/17 09:28:33;;;;;;;2.40;2.20;;;;;16.50;98641.00;;;;7393865;19;20201;-61
2021/10/17 09:31:01;;;;;;;2.60;2.40;;;;;16.50;98634.00;;;;7396282;19;20118;-62
2021/10/17 09:33:43;;;;;;;2.43;2.23;;;;;16.50;98633.00;;;;7398509;19;20122;-62
2021/10/17 09:36:19;;;;;;;2.37;2.17;;;;;16.50;98637.00;;;;7399893;19;20138;-61
2021/10/17 09:39:15;;;;;;;2.60;2.40;;;;;16.50;98638.00;;;;7401602;19;20115;-61
2021/10/17 09:42:21;;;;;;;2.30;2.20;;;;;16.50;98637.00;;;;7398793;19;20156;-62
2021/10/17 09:45:00;;;;;;;2.40;2.20;;;;;16.50;98636.00;;;;7399245;19;20552;-61
2021/10/17 09:47:47;;;;;;;2.57;2.37;;;;;16.50;98635.00;;;;7400584;19;20135;-62
2021/10/17 09:50:18;;;;;;;2.07;1.97;;;;;16.50;98630.00;;;;7400425;19;20130;-61
2021/10/17 09:52:56;;;;;;;2.43;2.23;;;;;16.50;98641.00;;;;7397052;19;20182;-61
2021/10/17 09:55:23;;;;;;;2.40;2.20;;;;;16.50;98624.00;;;;7400421;19;20110;-62
2021/10/17 09:57:51;;;;;;;2.20;2.10;;;;;16.50;98626.00;;;;7399798;19;20110;-61
2021/10/17 10:00:18;;;;;;;2.77;2.43;;;;;16.60;98627.00;;;;7398761;19;20472;-61
2021/10/17 10:02:46;;;;;;;2.37;2.17;;;;;16.60;98624.00;;;;7398486;19;20142;-62
2021/10/17 10:05:14;;;;;;;2.10;2.00;;;;;16.60;98628.00;;;;7400006;19;20109;-61
2021/10/17 10:07:42;;;;;;;2.50;2.30;;;;;16.60;98628.00;;;;7399706;19;20126;-62
2021/10/17 10:10:10;;;;;;;3.13;2.50;;;;;16.60;98628.00;;;;7399547;19;20121;-61
2021/10/17 10:12:39;;;;;;;2.50;2.30;;;;;16.60;98626.00;;;;7397431;19;20649;-61
2021/10/17 10:15:07;;;;;;;2.43;2.27;;;;;16.60;98623.00;;;;7399318;19;20109;-61
2021/10/17 10:17:38;;;;;;;2.17;1.70;;;;;16.70;98620.00;;;;7399143;19;20113;-62
2021/10/17 10:20:05;;;;;;;2.47;2.27;;;;;16.70;98627.00;;;;7399545;19;20130;-61
2021/10/17 10:22:32;;;;;;;2.33;2.13;;;;;16.70;98638.00;;;;7397329;19;20129;-62
2021/10/17 10:24:59;;;;;;;2.33;2.13;;;;;16.70;98631.00;;;;7399014;19;20134;-62
2021/10/17 10:27:29;;;;;;;2.23;2.13;;;;;16.70;98632.00;;;;7399242;19;20115;-58
2021/10/17 10:30:18;;;;;;;2.00;1.80;;;;;16.70;98625.00;;;;7399278;19;20113;-62
2021/10/17 10:33:08;;;;;;;2.17;1.90;;;;;16.70;98618.00;;;;7396692;19;20130;-59
2021/10/17 10:35:36;;;;;;;2.50;2.30;;;;;16.80;98622.00;;;;7398891;19;20146;-59
2021/10/17 10:38:03;;;;;;;3.00;2.00;;;;;16.80;98620.00;;;;7398725;19;20115;-59
2021/10/17 10:40:30;;;;;;;2.67;2.17;;;;;16.80;98621.00;;;;7398845;19;20572;-59
2021/10/17 10:43:13;;;;;;;2.30;2.10;;;;;16.80;98625.00;;;;7394651;19;20228;-59
2021/10/17 10:45:39;;;;;;;2.80;2.60;;;;;16.80;98620.00;;;;7399150;19;20510;-59
2021/10/17 10:48:12;;;;;;;3.97;2.50;;;;;16.90;98627.00;;;;7398251;19;20473;-59
2021/10/17 10:50:45;;;;;;;3.90;2.67;;;;;16.90;98624.00;;;;7398071;19;20116;-59
2021/10/17 10:53:51;;;;;;;3.53;2.57;;;;;16.90;98626.00;;;;7396111;19;20139;-59
2021/10/17 10:56:37;;;;;;;5.50;3.57;;;;;16.90;98622.00;;;;7398451;19;20117;-59
2021/10/17 10:59:04;;;;;;;10.33;4.20;;;;;16.90;98625.00;;;;7398025;19;20115;-58
2021/10/17 11:01:53;;;;;;;5.83;3.60;;;;;16.90;98630.00;;;;7397657;19;20129;-58
2021/10/17 11:04:41;;;;;;;8.17;3.83;;;;;16.90;98631.00;;;;7397541;19;20196;-58
2021/10/17 11:07:22;;;;;;;5.33;3.53;;;;;17.00;98623.00;;;;7397651;19;20133;-59
2021/10/17 11:09:52;;;;;;;6.17;3.50;;;;;17.00;98626.00;;;;7397476;19;20111;-61
2021/10/17 11:12:38;;;;;;;4.97;3.10;;;;;17.00;98628.00;;;;7396158;19;20591;-58
2021/10/17 11:15:09;;;;;;;4.77;2.67;;;;;17.00;98626.00;;;;7395599;19;20469;-62
2021/10/17 11:17:36;;;;;;;4.10;3.00;;;;;17.00;98624.00;;;;7397567;19;20135;-63
2021/10/17 11:20:04;;;;;;;4.33;3.00;;;;;17.00;98617.00;;;;7397726;19;20114;-62
2021/10/17 11:22:35;;;;;;;3.47;2.83;;;;;17.10;98635.00;;;;7395903;19;20153;-59
2021/10/17 11:25:02;;;;;;;3.87;2.70;;;;;17.10;98627.00;;;;7397204;19;20114;-63
2021/10/17 11:27:29;;;;;;;4.80;3.00;;;;;17.00;98627.00;;;;7397054;19;20149;-65
2021/10/17 11:29:56;;;;;;;6.07;4.87;;;;;17.00;98627.00;;;;7396655;19;20117;-59
2021/10/17 11:32:22;;;;;;;3.97;3.50;;;;;16.90;98633.00;;;;7395383;19;20478;-59
2021/10/17 11:35:00;;;;;;;5.40;3.57;;;;;16.90;98632.00;;;;7395211;19;20114;-59
2021/10/17 11:41:08;;;;;;;3.63;3.23;;;;;16.80;98620.00;;;;7402583;19;20439;-88
2021/10/17 11:43:43;;;;;;;4.37;3.23;;;;;16.90;98632.00;;;;7400427;19;20365;-88
2021/10/17 11:46:12;;;;;;;3.53;2.80;;;;;16.90;98629.00;;;;7400313;19;20149;-88
2021/10/17 11:48:43;;;;;;;4.23;2.70;;;;;16.90;98619.00;;;;7400023;19;20113;-88
2021/10/17 11:51:16;;;;;;;4.87;2.90;;;;;16.90;98620.00;;;;7400347;19;20572;-89
2021/10/17 11:53:43;;;;;;;3.07;2.77;;;;;16.90;98615.00;;;;7398948;19;20122;-88
2021/10/17 11:56:11;;;;;;;2.63;2.43;;;;;17.00;98617.00;;;;7399945;19;20170;-89
2021/10/17 11:58:40;;;;;;;3.97;2.73;;;;;17.00;98623.00;;;;7401299;19;20138;-88
2021/10/17 12:01:10;;;;;;;3.50;2.63;;;;;17.00;98623.00;;;;7400414;19;20143;-89
2021/10/17 12:03:38;;;;;;;4.23;2.60;;;;;17.00;98616.00;;;;7400757;19;20192;-88
2021/10/17 12:06:11;;;;;;;3.67;2.57;;;;;17.00;98611.00;;;;7401286;19;20130;-87
2021/10/17 12:08:38;;;;;;;2.60;2.40;;;;;17.10;98612.00;;;;7404397;19;20115;-88
2021/10/17 12:11:07;;;;;;;2.93;2.63;;;;;17.00;98612.00;;;;7402933;19;20158;-89
2021/10/17 12:14:09;;;;;;;5.73;2.97;;;;;17.00;98607.00;;;;7399585;19;20144;-89
2021/10/17 12:16:43;;;;;;;2.67;2.47;;;;;17.00;98609.00;;;;7407564;19;20146;-89
2021/10/17 12:19:10;;;;;;;3.23;2.30;;;;;17.00;98604.00;;;;7405876;19;20118;-89
2021/10/17 12:21:41;;;;;;;3.17;2.83;;;;;17.00;98608.00;;;;7405884;19;20114;-89
2021/10/17 12:24:09;;;;;;;3.87;2.57;;;;;17.00;98603.00;;;;7407418;19;20128;-89
2021/10/17 12:26:50;;;;;;;4.43;2.50;;;;;17.00;98606.00;;;;7403925;19;20144;-89
2021/10/17 12:29:18;;;;;;;2.87;2.30;;;;;17.00;98604.00;;;;7400145;19;20454;-89
2021/10/17 12:31:57;;;;;;;2.60;2.40;;;;;17.00;98602.00;;;;7400320;19;20138;-89
2021/10/17 12:34:39;;;;;;;3.50;2.60;;;;;17.00;98603.00;;;;7401617;19;20159;-89
2021/10/17 12:37:06;;;;;;;3.50;2.30;;;;;17.00;98593.00;;;;7402990;19;20138;-88